createdAt,value
2018-09-14T00:02:25.368Z,11.30
2018-09-14T00:04:54.453Z,12.70
2018-09-14T00:07:23.604Z,11.13
2018-09-14T00:09:52.851Z,10.87
2018-09-14T00:12:21.973Z,11.30
2018-09-14T00:14:51.081Z,13.03
2018-09-14T00:17:20.169Z,11.17
2018-09-14T00:19:50.037Z,13.33
2018-09-14T00:22:19.178Z,11.90
2018-09-14T00:24:48.235Z,11.70
2018-09-14T00:27:17.345Z,12.00
2018-09-14T00:29:46.479Z,10.53
2018-09-14T00:32:15.619Z,11.30
2018-09-14T00:34:44.684Z,13.53
2018-09-14T00:37:13.913Z,14.17
2018-09-14T00:39:42.973Z,14.90
2018-09-14T00:42:12.155Z,11.30
2018-09-14T00:44:41.230Z,14.97
2018-09-14T00:47:10.372Z,12.83
2018-09-14T00:49:39.556Z,11.20
2018-09-14T00:52:08.636Z,13.37
2018-09-14T00:54:37.803Z,10.07
2018-09-14T00:57:06.929Z,14.10
2018-09-14T00:59:35.958Z,9.70
2018-09-14T01:02:05.045Z,10.97
2018-09-14T01:04:34.068Z,9.43
2018-09-14T01:07:03.141Z,11.43
2018-09-14T01:09:32.175Z,9.83
2018-09-14T01:12:01.346Z,11.27
2018-09-14T01:14:30.404Z,12.83
2018-09-14T01:16:59.561Z,9.57
2018-09-14T01:19:28.872Z,11.53
2018-09-14T01:21:57.957Z,11.70
2018-09-14T01:24:27.136Z,12.13
2018-09-14T01:26:56.945Z,9.63
2018-09-14T01:29:26.015Z,12.53
2018-09-14T01:31:55.119Z,10.80
2018-09-14T01:34:24.289Z,11.37
2018-09-14T01:36:54.032Z,12.13
2018-09-14T01:39:23.108Z,10.50
2018-09-14T01:41:52.240Z,10.60
2018-09-14T01:44:21.294Z,14.53
2018-09-14T01:46:50.484Z,12.30
2018-09-14T01:49:19.652Z,10.27
2018-09-14T01:51:49.280Z,11.93
2018-09-14T01:54:19.229Z,11.33
2018-09-14T01:56:48.350Z,11.93
2018-09-14T01:59:17.479Z,12.73
2018-09-14T02:01:46.611Z,10.30
2018-09-14T02:04:15.676Z,11.53
2018-09-14T02:06:44.879Z,9.37
2018-09-14T02:09:14.714Z,12.87
2018-09-14T02:11:43.784Z,13.43
2018-09-14T02:14:12.859Z,10.60
2018-09-14T02:16:42.023Z,12.90
2018-09-14T02:19:11.168Z,12.80
2018-09-14T02:21:40.360Z,17.20
2018-09-14T02:24:09.419Z,13.47
2018-09-14T02:26:38.616Z,14.77
2018-09-14T02:29:07.779Z,12.40
2018-09-14T02:31:37.637Z,14.47
2018-09-14T02:34:06.687Z,10.10
2018-09-14T02:36:35.822Z,13.37
2018-09-14T02:39:06.541Z,11.97
2018-09-14T02:41:35.619Z,12.73
2018-09-14T02:44:04.830Z,13.27
2018-09-14T02:46:34.849Z,12.80
2018-09-14T02:49:03.961Z,14.27
2018-09-14T02:51:33.000Z,13.07
2018-09-14T02:54:02.225Z,12.07
2018-09-14T02:56:31.468Z,11.23
2018-09-14T02:59:00.641Z,12.30
2018-09-14T03:01:29.681Z,11.50
2018-09-14T03:03:58.822Z,13.90
2018-09-14T03:06:28.072Z,13.10
2018-09-14T03:08:58.286Z,11.60
2018-09-14T03:11:27.464Z,13.17
2018-09-14T03:13:56.713Z,13.07
2018-09-14T03:16:25.844Z,11.43
2018-09-14T03:18:54.997Z,12.57
2018-09-14T03:21:24.031Z,11.40
2018-09-14T03:23:53.177Z,12.43
2018-09-14T03:26:22.230Z,12.30
2018-09-14T03:28:51.393Z,12.57
2018-09-14T03:31:20.507Z,20.17
2018-09-14T03:33:49.584Z,18.30
2018-09-14T03:36:18.654Z,22.60
2018-09-14T03:38:47.739Z,23.77
2018-09-14T03:41:16.780Z,19.10
2018-09-14T03:43:45.906Z,19.27
2018-09-14T03:46:14.964Z,18.00
2018-09-14T03:48:44.108Z,22.63
2018-09-14T03:51:13.145Z,24.93
2018-09-14T03:53:42.245Z,21.23
2018-09-14T03:56:11.329Z,19.03
2018-09-14T03:58:41.025Z,17.70
2018-09-14T04:01:10.194Z,20.20
2018-09-14T04:03:39.304Z,18.77
2018-09-14T04:06:08.336Z,18.77
2018-09-14T04:08:37.388Z,19.03
2018-09-14T04:11:06.498Z,15.30
2018-09-14T04:13:35.744Z,18.03
2018-09-14T04:16:04.914Z,15.10
2018-09-14T04:18:33.984Z,21.30
2018-09-14T04:21:03.092Z,17.10
2018-09-14T04:23:32.374Z,19.70
2018-09-14T04:26:01.997Z,22.33
2018-09-14T04:28:31.099Z,16.97
2018-09-14T04:31:00.172Z,18.07
2018-09-14T04:33:29.230Z,17.23
2018-09-14T04:35:58.336Z,19.80
2018-09-14T04:38:27.563Z,24.23
2018-09-14T04:40:56.597Z,21.43
2018-09-14T04:43:25.754Z,19.00
2018-09-14T04:45:54.964Z,16.40
2018-09-14T04:48:24.085Z,17.03
2018-09-14T04:50:53.109Z,16.60
2018-09-14T04:53:22.148Z,17.43
2018-09-14T04:55:51.236Z,18.73
2018-09-14T04:58:20.280Z,20.37
2018-09-14T05:00:49.628Z,19.13
2018-09-14T05:03:18.880Z,19.37
2018-09-14T05:05:47.962Z,21.17
2018-09-14T05:08:17.046Z,21.00
2018-09-14T05:10:46.189Z,20.30
2018-09-14T05:13:15.441Z,21.73
2018-09-14T05:15:44.525Z,20.13
2018-09-14T05:18:13.608Z,18.37
2018-09-14T05:20:42.770Z,18.17
2018-09-14T05:23:11.803Z,19.07
2018-09-14T05:25:41.035Z,20.10
2018-09-14T05:28:10.109Z,25.33
2018-09-14T05:30:39.202Z,24.20
2018-09-14T05:33:08.383Z,20.70
2018-09-14T05:35:37.563Z,20.03
2018-09-14T05:38:06.729Z,19.63
2018-09-14T05:40:35.806Z,22.80
2018-09-14T05:43:05.026Z,20.90
2018-09-14T05:45:34.200Z,25.73
2018-09-14T05:48:03.856Z,19.40
2018-09-14T05:50:33.067Z,24.43
2018-09-14T05:53:02.236Z,22.50
2018-09-14T05:55:31.364Z,24.63
2018-09-14T05:58:00.769Z,26.70
2018-09-14T06:00:30.190Z,25.50
2018-09-14T06:02:59.370Z,24.50
2018-09-14T06:05:28.512Z,22.60
2018-09-14T06:07:57.583Z,22.70
2018-09-14T06:10:26.748Z,29.07
2018-09-14T06:12:55.975Z,23.33
2018-09-14T06:15:25.201Z,23.70
2018-09-14T06:17:55.498Z,25.07
2018-09-14T06:20:24.664Z,22.87
2018-09-14T06:22:53.864Z,25.10
2018-09-14T06:25:23.133Z,29.57
2018-09-14T06:27:52.331Z,30.03
2018-09-14T06:30:21.529Z,28.23
2018-09-14T06:32:51.862Z,35.97
2018-09-14T06:35:21.033Z,30.63
2018-09-14T06:37:50.152Z,39.20
2018-09-14T06:40:20.571Z,44.13
2018-09-14T06:42:49.644Z,39.70
2018-09-14T06:45:19.538Z,40.10
2018-09-14T06:47:48.595Z,42.60
2018-09-14T06:50:18.614Z,40.47
2018-09-14T06:52:47.697Z,44.27
2018-09-14T06:55:16.892Z,43.37
2018-09-14T06:57:46.090Z,55.97
2018-09-14T07:00:15.330Z,51.63
2018-09-14T07:02:44.384Z,56.20
2018-09-14T07:05:13.459Z,55.57
2018-09-14T07:07:42.703Z,57.40
2018-09-14T07:10:12.667Z,54.13
2018-09-14T07:12:41.804Z,55.60
2018-09-14T07:15:11.904Z,56.87
2018-09-14T07:17:41.084Z,56.40
2018-09-14T07:20:10.941Z,49.87
2018-09-14T07:22:40.029Z,62.60
2018-09-14T07:25:09.277Z,53.33
2018-09-14T07:27:38.806Z,59.57
2018-09-14T07:30:07.919Z,58.17
2018-09-14T07:32:37.142Z,54.73
2018-09-14T07:35:06.219Z,54.50
2018-09-14T07:37:35.377Z,52.27
2018-09-14T07:40:04.465Z,52.17
2018-09-14T07:42:33.700Z,54.50
2018-09-14T07:45:02.823Z,50.53
2018-09-14T07:47:31.876Z,53.57
2018-09-14T07:50:01.239Z,51.70
2018-09-14T07:52:30.400Z,48.17
2018-09-14T07:54:59.593Z,39.37
2018-09-14T07:57:28.791Z,40.13
2018-09-14T07:59:57.904Z,37.50
2018-09-14T08:02:27.757Z,42.53
2018-09-14T08:04:56.845Z,43.17
2018-09-14T08:07:25.937Z,46.30
2018-09-14T08:09:55.021Z,45.53
2018-09-14T08:12:24.139Z,42.70
2018-09-14T08:14:53.277Z,44.53
2018-09-14T08:17:23.045Z,43.00
2018-09-14T08:19:52.139Z,49.73
2018-09-14T08:22:21.332Z,43.33
2018-09-14T08:24:50.509Z,42.90
2018-09-14T08:27:19.827Z,44.27
2018-09-14T08:29:49.013Z,40.53
2018-09-14T08:32:18.217Z,43.03
2018-09-14T08:34:48.017Z,41.10
2018-09-14T08:37:17.127Z,43.67
2018-09-14T08:39:46.192Z,44.00
2018-09-14T08:42:15.282Z,42.90
2018-09-14T08:44:44.379Z,48.70
2018-09-14T08:47:13.546Z,40.97
2018-09-14T08:49:42.703Z,34.77
2018-09-14T08:52:13.268Z,31.53
2018-09-14T08:54:43.097Z,28.20
2018-09-14T08:57:12.245Z,29.60
2018-09-14T08:59:41.414Z,30.20
2018-09-14T09:02:10.685Z,30.83
2018-09-14T09:04:39.904Z,35.07
2018-09-14T09:07:09.997Z,35.37
2018-09-14T09:09:39.038Z,31.80
2018-09-14T09:12:08.184Z,30.67
2018-09-14T09:14:37.229Z,31.80
2018-09-14T09:17:06.498Z,38.00
2018-09-14T09:19:35.627Z,37.40
2018-09-14T09:22:05.399Z,36.70
2018-09-14T09:24:34.469Z,34.43
2018-09-14T09:27:03.574Z,29.33
2018-09-14T09:29:32.853Z,36.40
2018-09-14T09:32:02.034Z,33.43
2018-09-14T09:34:31.174Z,36.33
2018-09-14T09:37:00.255Z,34.90
2018-09-14T09:39:29.386Z,29.47
2018-09-14T09:41:58.498Z,28.27
2018-09-14T09:44:27.560Z,35.00
2018-09-14T09:46:56.832Z,28.70
2018-09-14T09:49:26.079Z,32.27
2018-09-14T09:51:55.200Z,30.03
2018-09-14T09:54:24.880Z,28.87
2018-09-14T09:56:54.979Z,28.50
2018-09-14T09:59:24.094Z,26.93
2018-09-14T10:01:58.732Z,25.80
2018-09-14T10:04:34.302Z,30.10
2018-09-14T10:07:03.448Z,31.33
2018-09-14T10:09:32.476Z,30.63
2018-09-14T10:12:01.613Z,32.40
2018-09-14T10:14:31.294Z,33.40
2018-09-14T10:17:01.062Z,34.67
2018-09-14T10:19:30.232Z,33.90
2018-09-14T10:21:59.493Z,39.17
2018-09-14T10:24:28.627Z,32.93
2018-09-14T10:26:57.680Z,29.60
2018-09-14T10:29:26.730Z,35.13
2018-09-14T10:31:56.397Z,31.40
2018-09-14T10:34:25.500Z,27.63
2018-09-14T10:36:54.832Z,26.80
2018-09-14T10:39:23.915Z,26.67
2018-09-14T10:41:53.840Z,21.57
2018-09-14T10:44:23.581Z,24.43
2018-09-14T10:46:52.667Z,23.80
2018-09-14T10:49:22.436Z,18.43
2018-09-14T10:51:52.101Z,17.97
2018-09-14T10:54:21.205Z,15.70
2018-09-14T10:56:50.432Z,14.80
2018-09-14T10:59:19.495Z,16.07
2018-09-14T11:01:49.260Z,18.10
2018-09-14T11:04:18.443Z,15.27
2018-09-14T11:06:47.665Z,13.83
2018-09-14T11:09:16.656Z,15.40
2018-09-14T11:11:45.792Z,16.50
2018-09-14T11:14:15.060Z,16.70
2018-09-14T11:16:44.172Z,14.67
2018-09-14T11:19:13.249Z,17.17
2018-09-14T11:21:42.330Z,16.70
2018-09-14T11:24:12.178Z,17.60
2018-09-14T11:26:41.336Z,14.67
2018-09-14T11:29:10.400Z,16.00
2018-09-14T11:31:39.591Z,16.43
2018-09-14T11:34:08.788Z,17.73
2018-09-14T11:36:37.997Z,14.03
2018-09-14T11:39:09.422Z,13.57
2018-09-14T11:41:39.703Z,14.33
2018-09-14T11:44:09.427Z,13.50
2018-09-14T11:46:38.520Z,13.20
2018-09-14T11:49:07.829Z,14.77
2018-09-14T11:51:36.936Z,13.33
2018-09-14T11:54:07.347Z,15.53
2018-09-14T11:56:37.100Z,14.73
2018-09-14T11:59:06.229Z,14.57
2018-09-14T12:01:35.321Z,16.43
2018-09-14T12:04:04.437Z,16.37
2018-09-14T12:06:33.578Z,15.17
2018-09-14T12:09:02.813Z,12.23
2018-09-14T12:11:32.011Z,14.27
2018-09-14T12:14:01.311Z,18.40
2018-09-14T12:16:30.343Z,18.50
2018-09-14T12:18:59.540Z,15.50
2018-09-14T12:21:28.606Z,17.43
2018-09-14T12:23:57.725Z,14.80
2018-09-14T12:26:26.822Z,15.67
2018-09-14T12:28:56.035Z,14.30
2018-09-14T12:31:25.101Z,17.17
2018-09-14T12:33:54.249Z,16.23
2018-09-14T12:36:23.488Z,17.17
2018-09-14T12:38:52.678Z,17.30
2018-09-14T12:41:21.773Z,18.83
2018-09-14T12:43:50.862Z,18.37
2018-09-14T12:46:20.058Z,15.40
2018-09-14T12:48:49.264Z,14.60
2018-09-14T12:51:18.387Z,14.43
2018-09-14T12:53:47.468Z,14.60
2018-09-14T12:56:16.647Z,14.00
2018-09-14T12:58:46.533Z,13.50
2018-09-14T13:01:15.707Z,12.90
2018-09-14T13:03:44.806Z,10.40
2018-09-14T13:06:13.864Z,10.10
2018-09-14T13:08:43.013Z,10.47
2018-09-14T13:11:12.248Z,12.33
2018-09-14T13:13:42.025Z,12.67
2018-09-14T13:16:11.063Z,9.60
2018-09-14T13:18:40.208Z,11.50
2018-09-14T13:21:09.361Z,8.90
2018-09-14T13:23:38.431Z,10.73
2018-09-14T13:26:07.631Z,10.00
2018-09-14T13:28:36.826Z,11.20
2018-09-14T13:31:06.077Z,13.90
2018-09-14T13:33:36.354Z,11.67
2018-09-14T13:36:05.515Z,9.97
2018-09-14T13:38:34.717Z,13.10
2018-09-14T13:41:04.440Z,11.60
2018-09-14T13:43:33.491Z,14.20
2018-09-14T13:46:02.685Z,12.47
2018-09-14T13:48:31.856Z,12.90
2018-09-14T13:51:01.849Z,10.70
2018-09-14T13:53:30.952Z,11.53
2018-09-14T13:56:00.845Z,9.50
2018-09-14T13:58:29.935Z,11.20
2018-09-14T14:00:59.029Z,9.70
2018-09-14T14:03:28.141Z,7.73
2018-09-14T14:05:57.842Z,8.33
2018-09-14T14:08:26.952Z,8.47
2018-09-14T14:10:56.018Z,8.50
2018-09-14T14:13:25.081Z,8.10
2018-09-14T14:15:54.248Z,7.67
2018-09-14T14:18:23.476Z,5.87
2018-09-14T14:20:53.461Z,6.20
2018-09-14T14:23:22.620Z,7.80
2018-09-14T14:25:51.890Z,7.40
2018-09-14T14:28:21.013Z,6.47
2018-09-14T14:30:50.224Z,6.57
2018-09-14T14:33:19.345Z,5.87
2018-09-14T14:35:48.472Z,5.47
2018-09-14T14:38:17.617Z,5.40
2018-09-14T14:40:46.836Z,5.87
2018-09-14T14:43:16.024Z,6.10
2018-09-14T14:45:45.319Z,6.37
2018-09-14T14:48:14.396Z,5.23
2018-09-14T14:50:43.510Z,5.13
2018-09-14T14:53:12.569Z,5.77
2018-09-14T14:55:41.672Z,5.50
2018-09-14T14:58:10.725Z,5.63
2018-09-14T15:00:39.884Z,5.40
2018-09-14T15:03:09.160Z,4.53
2018-09-14T15:05:38.279Z,6.00
2018-09-14T15:08:07.621Z,4.80
2018-09-14T15:10:37.504Z,5.30
2018-09-14T15:13:06.568Z,4.37
2018-09-14T15:15:36.345Z,4.17
2018-09-14T15:18:05.640Z,3.77
2018-09-14T15:20:34.702Z,4.07
2018-09-14T15:23:04.418Z,4.03
2018-09-14T15:25:33.469Z,4.20
2018-09-14T15:28:02.620Z,4.20
2018-09-14T15:30:32.301Z,3.80
2018-09-14T15:33:01.457Z,3.73
2018-09-14T15:35:30.629Z,4.40
2018-09-14T15:37:59.752Z,5.07
2018-09-14T15:40:29.530Z,4.07
2018-09-14T15:42:58.597Z,4.13
2018-09-14T15:45:27.833Z,3.40
2018-09-14T15:47:57.535Z,5.27
2018-09-14T15:50:26.631Z,4.37
2018-09-14T15:52:55.709Z,4.90
2018-09-14T15:55:24.768Z,4.10
2018-09-14T15:57:53.946Z,4.00
2018-09-14T16:00:23.420Z,4.20
2018-09-14T16:02:53.867Z,4.47
2018-09-14T16:05:22.920Z,4.83
2018-09-14T16:07:52.061Z,4.27
2018-09-14T16:10:21.148Z,4.20
2018-09-14T16:12:50.216Z,4.60
2018-09-14T16:15:19.334Z,4.73
2018-09-14T16:17:48.406Z,4.20
2018-09-14T16:20:17.593Z,5.17
2018-09-14T16:22:46.775Z,4.33
2018-09-14T16:25:16.384Z,7.03
2018-09-14T16:27:45.590Z,12.00
2018-09-14T16:30:14.762Z,6.90
2018-09-14T16:32:43.861Z,4.90
2018-09-14T16:35:12.951Z,5.50
2018-09-14T16:37:42.033Z,5.50
2018-09-14T16:40:11.132Z,7.03
2018-09-14T16:42:40.636Z,7.60
2018-09-14T16:45:10.509Z,9.23
2018-09-14T16:47:39.659Z,9.83
2018-09-14T16:50:08.749Z,10.83
2018-09-14T16:52:37.839Z,14.77
2018-09-14T16:55:07.018Z,12.47
2018-09-14T16:57:36.116Z,12.73
2018-09-14T17:00:06.245Z,16.20
2018-09-14T17:02:35.713Z,11.40
2018-09-14T17:05:05.001Z,18.17
2018-09-14T17:07:34.479Z,15.70
2018-09-14T17:10:04.057Z,14.77
2018-09-14T17:12:33.297Z,20.30
2018-09-14T17:15:02.389Z,17.60
2018-09-14T17:17:31.618Z,18.40
2018-09-14T17:20:01.353Z,18.97
2018-09-14T17:22:30.390Z,21.80
2018-09-14T17:25:00.330Z,16.17
2018-09-14T17:27:29.467Z,19.47
2018-09-14T17:29:58.642Z,20.83
2018-09-14T17:32:28.295Z,23.73
2018-09-14T17:34:57.424Z,19.57
2018-09-14T17:37:26.612Z,20.60
2018-09-14T17:39:55.840Z,19.93
2018-09-14T17:42:25.144Z,20.37
2018-09-14T17:44:55.671Z,25.77
2018-09-14T17:47:24.846Z,17.07
2018-09-14T17:49:54.086Z,17.67
2018-09-14T17:52:23.273Z,18.07
2018-09-14T17:54:53.991Z,18.73
2018-09-14T17:57:23.436Z,22.37
2018-09-14T17:59:52.584Z,21.60
2018-09-14T18:02:21.785Z,19.30
2018-09-14T18:04:51.987Z,22.27
2018-09-14T18:07:21.120Z,19.03
2018-09-14T18:09:50.509Z,20.53
2018-09-14T18:12:19.616Z,19.03
2018-09-14T18:14:48.877Z,18.90
2018-09-14T18:18:47.395Z,21.30
2018-09-14T18:21:17.208Z,20.90
2018-09-14T18:23:46.623Z,18.93
2018-09-14T18:26:15.635Z,17.40
2018-09-14T18:28:44.722Z,17.17
2018-09-14T18:31:13.921Z,21.53
2018-09-14T18:33:43.042Z,17.80
2018-09-14T18:36:12.151Z,17.00
2018-09-14T18:38:41.185Z,19.00
2018-09-14T18:41:10.965Z,17.93
2018-09-14T18:43:40.081Z,19.10
2018-09-14T18:46:09.227Z,15.10
2018-09-14T18:48:38.509Z,18.03
2018-09-14T18:51:07.656Z,23.17
2018-09-14T18:53:37.424Z,18.33
2018-09-14T18:56:07.642Z,18.20
2018-09-14T18:58:37.324Z,17.67
2018-09-14T19:01:06.448Z,16.90
2018-09-14T19:10:23.980Z,14.00
2018-09-14T19:12:53.152Z,14.20
2018-09-14T19:15:22.841Z,15.43
2018-09-14T19:17:51.926Z,18.07
2018-09-14T19:20:21.173Z,17.90
2018-09-14T19:22:50.426Z,16.30
2018-09-14T19:25:19.501Z,14.00
2018-09-14T19:27:48.659Z,16.53
2018-09-14T19:30:17.728Z,14.20
2018-09-14T19:32:46.892Z,19.10
2018-09-14T19:35:16.128Z,14.43
2018-09-14T19:37:45.205Z,14.07
2018-09-14T19:40:15.503Z,15.63
2018-09-14T19:42:44.585Z,11.60
2018-09-14T19:45:13.692Z,11.97
2018-09-14T19:47:42.784Z,13.83
2018-09-14T19:50:11.930Z,15.07
2018-09-14T19:52:40.916Z,14.07
2018-09-14T19:55:10.115Z,13.90
2018-09-14T19:57:39.161Z,15.17
2018-09-14T20:00:08.735Z,13.70
2018-09-14T20:02:38.065Z,13.13
2018-09-14T20:05:07.215Z,14.90
2018-09-14T20:07:36.403Z,14.43
2018-09-14T20:10:05.548Z,10.80
2018-09-14T20:12:34.586Z,11.60
2018-09-14T20:15:04.445Z,15.70
2018-09-14T20:17:33.536Z,13.53
2018-09-14T20:20:02.578Z,14.50
2018-09-14T20:22:31.733Z,13.80
2018-09-14T20:25:01.268Z,13.07
2018-09-14T20:27:30.457Z,13.43
2018-09-14T20:29:59.697Z,14.87
2018-09-14T20:32:28.841Z,17.33
2018-09-14T20:34:57.936Z,14.10
2018-09-14T20:37:27.218Z,14.30
2018-09-14T20:39:56.259Z,15.50
2018-09-14T20:42:25.391Z,14.63
2018-09-14T20:44:54.416Z,14.57
2018-09-14T20:47:23.506Z,16.60
2018-09-14T20:49:52.612Z,14.63
2018-09-14T20:52:21.749Z,14.40
2018-09-14T20:54:50.883Z,12.77
2018-09-14T20:57:20.106Z,13.87
2018-09-14T20:59:49.188Z,15.40
2018-09-14T21:02:18.680Z,14.20
2018-09-14T21:04:47.752Z,13.87
2018-09-14T21:07:17.021Z,16.20
2018-09-14T21:09:46.146Z,17.30
2018-09-14T21:12:15.263Z,16.20
2018-09-14T21:14:44.300Z,17.50
2018-09-14T21:17:13.377Z,16.10
2018-09-14T21:19:42.453Z,14.87
2018-09-14T21:22:11.488Z,16.00
2018-09-14T21:24:40.574Z,16.87
2018-09-14T21:27:09.777Z,16.37
2018-09-14T21:29:38.300Z,16.40
2018-09-14T21:32:07.492Z,20.43
2018-09-14T21:34:36.538Z,18.83
2018-09-14T21:37:05.999Z,20.50
2018-09-14T21:39:35.053Z,18.07
2018-09-14T21:42:04.140Z,16.20
2018-09-14T21:44:33.723Z,16.27
2018-09-14T21:47:02.807Z,16.93
2018-09-14T21:49:31.840Z,16.60
2018-09-14T21:52:02.088Z,17.00
2018-09-14T21:54:31.260Z,16.20
2018-09-14T21:57:00.387Z,18.00
2018-09-14T21:59:29.509Z,21.20
2018-09-14T22:01:58.700Z,18.07
2018-09-14T22:04:27.722Z,20.60
2018-09-14T22:06:56.844Z,25.30
2018-09-14T22:09:26.577Z,18.07
2018-09-14T22:11:55.624Z,19.17
2018-09-14T22:14:24.730Z,23.90
2018-09-14T22:16:53.759Z,19.30
2018-09-14T22:19:23.617Z,27.33
2018-09-14T22:21:52.820Z,24.03
2018-09-14T22:24:22.608Z,22.07
2018-09-14T22:26:52.478Z,28.13
2018-09-14T22:29:21.547Z,19.90
2018-09-14T22:31:50.624Z,21.50
2018-09-14T22:34:20.432Z,20.97
2018-09-14T22:36:49.590Z,21.40
2018-09-14T22:39:18.696Z,18.60
2018-09-14T22:41:47.788Z,19.13
2018-09-14T22:44:16.857Z,16.43
2018-09-14T22:46:45.944Z,20.80
2018-09-14T22:49:15.716Z,20.63
2018-09-14T22:51:44.835Z,16.40
2018-09-14T22:54:13.972Z,18.60
2018-09-14T22:56:43.515Z,19.30
2018-09-14T22:59:12.575Z,14.20
2018-09-14T23:01:41.721Z,17.50
2018-09-14T23:04:10.783Z,17.57
2018-09-14T23:06:39.901Z,16.20
2018-09-14T23:09:09.094Z,15.23
2018-09-14T23:11:38.716Z,14.30
2018-09-14T23:14:07.781Z,14.70
2018-09-14T23:16:37.520Z,16.37
2018-09-14T23:19:06.584Z,15.03
2018-09-14T23:21:36.444Z,19.43
2018-09-14T23:24:06.324Z,17.30
2018-09-14T23:26:35.485Z,19.90
2018-09-14T23:29:05.095Z,16.03
2018-09-14T23:31:34.296Z,15.37
2018-09-14T23:34:04.009Z,16.30
2018-09-14T23:36:33.646Z,15.40
2018-09-14T23:39:02.697Z,17.33
2018-09-14T23:41:31.751Z,16.67
2018-09-14T23:44:01.305Z,17.20
2018-09-14T23:46:30.499Z,18.60
2018-09-14T23:48:59.608Z,16.83
2018-09-14T23:51:28.741Z,18.97
2018-09-14T23:53:57.796Z,19.53
2018-09-14T23:56:26.816Z,17.23
2018-09-14T23:58:55.929Z,16.27
